Time;durP1;ratioP1;P1;durP2;ratioP2;P2;SDS_P1;SDS_P2;PMS_P1;PMS_P2;Temp;Humidity;BMP_temperature;BMP_pressure;BME280_temperature;BME280_humidity;BME280_pressure;Samples;Min_cycle;Max_cycle;Signal;HPM_P1;HPM_P2
2023/12/13 00:02:20;;;;;;;4.15;1.90;;;11.10;87.40;;;;;;5041241;28;20126;-59
2023/12/13 00:04:46;;;;;;;1.83;1.35;;;11.10;87.40;;;;;;5050373;28;20033;-58
2023/12/13 00:07:12;;;;;;;1.73;1.52;;;11.00;87.30;;;;;;5056226;28;20049;-59
2023/12/13 00:09:38;;;;;;;2.67;1.42;;;11.00;87.50;;;;;;5057961;28;20535;-59
2023/12/13 00:12:04;;;;;;;3.92;1.50;;;11.00;87.70;;;;;;5052987;28;20472;-58
2023/12/13 00:14:30;;;;;;;1.63;1.30;;;11.00;87.70;;;;;;5055702;28;20033;-58
2023/12/13 00:16:56;;;;;;;4.32;1.00;;;11.00;87.80;;;;;;5048848;28;20040;-58
2023/12/13 00:19:22;;;;;;;1.25;0.90;;;11.00;87.80;;;;;;5047696;28;20090;-59
2023/12/13 00:21:48;;;;;;;4.22;1.08;;;11.00;87.70;;;;;;5057780;28;20052;-59
2023/12/13 00:24:14;;;;;;;2.70;1.20;;;11.00;87.70;;;;;;5059577;28;20064;-59
2023/12/13 00:26:40;;;;;;;2.78;1.70;;;11.00;87.70;;;;;;5057046;28;20341;-59
2023/12/13 00:29:06;;;;;;;2.28;1.30;;;10.90;87.80;;;;;;5049299;28;20495;-68
2023/12/13 00:31:31;;;;;;;1.55;1.08;;;10.90;87.80;;;;;;5048623;28;20025;-59
2023/12/13 00:33:57;;;;;;;1.75;1.33;;;10.90;87.80;;;;;;5052239;28;20055;-58
2023/12/13 00:36:23;;;;;;;2.85;1.30;;;10.90;87.90;;;;;;5051264;28;20029;-59
2023/12/13 00:38:48;;;;;;;1.73;1.48;;;10.90;87.90;;;;;;5050184;28;20029;-59
2023/12/13 00:41:14;;;;;;;3.13;1.80;;;10.90;87.90;;;;;;5046395;28;20462;-59
2023/12/13 00:43:40;;;;;;;2.60;1.48;;;10.90;88.40;;;;;;5053393;28;20025;-59
2023/12/13 00:46:06;;;;;;;1.35;1.20;;;10.90;87.80;;;;;;5052612;28;20388;-68
2023/12/13 00:48:32;;;;;;;2.67;1.67;;;10.90;87.70;;;;;;5049874;28;20554;-68
2023/12/13 00:50:58;;;;;;;1.52;1.17;;;11.00;87.70;;;;;;5049602;28;20025;-68
2023/12/13 00:53:24;;;;;;;2.03;1.20;;;11.00;87.70;;;;;;5047288;28;20090;-68
2023/12/13 00:55:52;;;;;;;2.67;1.55;;;11.00;87.50;;;;;;5049539;28;20029;-68
2023/12/13 00:58:18;;;;;;;1.20;1.10;;;11.00;87.50;;;;;;5048835;28;20040;-68
2023/12/13 01:00:44;;;;;;;1.33;0.95;;;11.00;87.50;;;;;;5046376;28;20060;-67
2023/12/13 01:03:09;;;;;;;4.10;1.20;;;11.00;87.50;;;;;;5048452;28;20064;-67
2023/12/13 01:05:35;;;;;;;2.08;1.33;;;11.10;87.50;;;;;;5050594;28;20144;-59
2023/12/13 01:08:02;;;;;;;2.05;1.20;;;11.00;87.50;;;;;;5049619;28;20045;-59
2023/12/13 01:10:28;;;;;;;3.72;0.98;;;11.10;87.70;;;;;;5048802;28;20025;-59
2023/12/13 01:12:54;;;;;;;1.63;1.10;;;11.00;87.70;;;;;;5046962;28;20030;-59
2023/12/13 01:15:19;;;;;;;1.15;1.00;;;11.00;87.80;;;;;;5047370;28;20033;-59
2023/12/13 01:17:45;;;;;;;1.08;0.98;;;11.00;87.80;;;;;;5051372;28;20549;-59
2023/12/13 01:20:11;;;;;;;1.67;1.02;;;11.10;88.30;;;;;;5053979;28;20100;-59
2023/12/13 01:22:37;;;;;;;1.70;1.00;;;11.00;87.80;;;;;;5052950;28;20033;-59
2023/12/13 01:25:03;;;;;;;2.70;1.55;;;10.90;88.00;;;;;;5044246;28;20025;-59
2023/12/13 01:27:28;;;;;;;2.67;1.13;;;10.90;88.00;;;;;;5047491;28;20045;-59
2023/12/13 01:29:54;;;;;;;1.80;0.85;;;10.90;88.00;;;;;;5050803;28;20029;-59
2023/12/13 01:32:20;;;;;;;0.93;0.70;;;10.90;88.00;;;;;;5054271;28;20419;-58
2023/12/13 01:34:46;;;;;;;4.25;1.50;;;10.90;88.00;;;;;;5040837;28;20473;-59
2023/12/13 01:37:11;;;;;;;1.13;0.70;;;11.00;88.00;;;;;;5053661;28;20338;-59
2023/12/13 01:39:38;;;;;;;1.30;1.05;;;11.00;87.90;;;;;;5057691;28;20037;-58
2023/12/13 01:42:05;;;;;;;3.30;1.20;;;11.00;87.90;;;;;;5061349;28;20056;-59
2023/12/13 01:44:30;;;;;;;1.55;1.00;;;11.00;87.90;;;;;;5050226;28;20349;-59
2023/12/13 01:46:56;;;;;;;5.15;0.80;;;11.00;87.90;;;;;;5053374;28;20093;-59
2023/12/13 01:49:22;;;;;;;1.42;0.90;;;11.00;87.90;;;;;;5051489;28;20029;-59
2023/12/13 01:51:48;;;;;;;0.82;0.82;;;11.00;87.90;;;;;;5050216;28;20033;-59
2023/12/13 01:54:16;;;;;;;5.38;0.93;;;11.00;87.80;;;;;;5048795;28;20503;-58
2023/12/13 01:56:43;;;;;;;0.63;0.50;;;11.00;87.80;;;;;;5054716;28;20032;-59
2023/12/13 01:59:10;;;;;;;1.27;0.90;;;11.00;87.80;;;;;;5054232;28;20180;-68
2023/12/13 02:01:38;;;;;;;1.77;1.30;;;11.00;87.90;;;;;;5063826;28;20518;-68
2023/12/13 02:04:05;;;;;;;2.10;0.77;;;11.00;87.90;;;;;;5055731;28;20029;-68
2023/12/13 02:06:31;;;;;;;1.55;1.02;;;11.00;88.00;;;;;;5051143;28;20033;-67
2023/12/13 02:08:57;;;;;;;2.25;1.13;;;11.00;87.90;;;;;;5051373;28;20041;-68
2023/12/13 02:11:23;;;;;;;1.40;0.85;;;11.00;87.90;;;;;;5059411;28;20332;-68
2023/12/13 02:13:49;;;;;;;2.20;0.80;;;11.00;87.80;;;;;;5055190;28;20052;-68
2023/12/13 02:16:14;;;;;;;4.57;1.73;;;11.00;87.80;;;;;;5047110;28;20112;-68
2023/12/13 02:18:40;;;;;;;0.65;0.65;;;11.00;88.00;;;;;;5047127;28;20033;-68
2023/12/13 02:21:06;;;;;;;1.10;0.80;;;11.00;88.00;;;;;;5058097;28;20037;-68
2023/12/13 02:23:32;;;;;;;1.58;0.93;;;11.00;88.00;;;;;;5052616;28;20033;-68
2023/12/13 02:26:02;;;;;;;1.73;0.70;;;11.00;88.00;;;;;;5051512;28;20288;-68
2023/12/13 02:28:29;;;;;;;0.50;0.50;;;11.00;88.00;;;;;;5047918;28;20398;-68
2023/12/13 02:30:56;;;;;;;0.85;0.63;;;11.00;87.90;;;;;;5051714;28;20029;-68
2023/12/13 02:33:26;;;;;;;0.70;0.50;;;11.00;87.80;;;;;;5047997;28;20017;-68
2023/12/13 02:35:57;;;;;;;3.00;0.70;;;11.00;87.80;;;;;;5059955;28;20033;-68
2023/12/13 02:38:23;;;;;;;1.25;0.75;;;11.00;87.90;;;;;;5051734;28;20037;-68
2023/12/13 02:40:49;;;;;;;2.20;0.63;;;11.00;87.90;;;;;;5059135;28;20082;-58
2023/12/13 02:43:15;;;;;;;2.63;0.95;;;11.00;87.90;;;;;;5063371;28;20035;-59
2023/12/13 02:45:41;;;;;;;1.25;0.90;;;11.00;87.90;;;;;;5054060;28;20450;-58
2023/12/13 02:48:07;;;;;;;3.92;0.57;;;11.00;87.90;;;;;;5053390;28;20445;-59
2023/12/13 02:50:36;;;;;;;1.52;0.85;;;11.00;87.90;;;;;;5053058;28;20063;-58
2023/12/13 02:53:06;;;;;;;1.85;0.60;;;11.00;87.80;;;;;;5062632;28;20024;-58
2023/12/13 02:55:32;;;;;;;0.70;0.60;;;11.00;87.80;;;;;;5054555;28;20025;-58
2023/12/13 02:57:59;;;;;;;1.38;0.70;;;11.00;87.70;;;;;;5056502;28;20632;-58
2023/12/13 03:00:25;;;;;;;0.93;0.60;;;11.00;87.70;;;;;;5052845;28;20025;-58
2023/12/13 03:02:50;;;;;;;0.68;0.45;;;11.00;87.60;;;;;;5058269;28;20124;-58
2023/12/13 03:05:16;;;;;;;7.03;1.15;;;11.00;88.10;;;;;;5052329;28;20451;-58
2023/12/13 03:07:42;;;;;;;1.88;0.73;;;11.00;87.60;;;;;;5050856;28;20088;-58
2023/12/13 03:10:08;;;;;;;1.60;0.82;;;11.00;87.50;;;;;;5063342;28;20256;-59
2023/12/13 03:12:34;;;;;;;1.20;0.75;;;11.00;87.60;;;;;;5054899;28;20021;-67
2023/12/13 03:15:00;;;;;;;1.38;0.95;;;11.00;87.70;;;;;;5061336;28;20036;-67
2023/12/13 03:17:25;;;;;;;0.85;0.68;;;11.00;87.60;;;;;;5060046;28;20065;-67
2023/12/13 03:19:51;;;;;;;0.80;0.63;;;11.00;87.60;;;;;;5058546;28;20025;-68
2023/12/13 03:22:17;;;;;;;1.75;0.50;;;11.00;88.20;;;;;;5059027;28;20083;-58
2023/12/13 03:24:43;;;;;;;1.42;1.00;;;11.00;87.60;;;;;;5059261;28;20040;-58
2023/12/13 03:27:08;;;;;;;0.98;0.52;;;11.00;87.60;;;;;;5054167;28;20048;-68
2023/12/13 03:29:34;;;;;;;0.75;0.50;;;11.00;87.60;;;;;;5059701;28;20357;-67
2023/12/13 03:32:00;;;;;;;0.55;0.47;;;11.00;87.60;;;;;;5052917;28;20116;-68
2023/12/13 03:34:26;;;;;;;1.05;0.90;;;11.00;87.60;;;;;;5051644;28;20112;-67
2023/12/13 03:36:51;;;;;;;0.60;0.60;;;11.00;87.50;;;;;;5050316;28;20098;-58
2023/12/13 03:39:17;;;;;;;0.70;0.70;;;11.00;87.60;;;;;;5052517;28;20021;-58
2023/12/13 03:41:43;;;;;;;0.90;0.65;;;11.00;87.40;;;;;;5054218;28;20058;-58
2023/12/13 03:44:09;;;;;;;1.88;0.80;;;11.00;87.50;;;;;;5055250;28;20118;-58
2023/12/13 03:46:34;;;;;;;1.10;0.60;;;11.00;87.50;;;;;;5049852;28;20029;-58
2023/12/13 03:49:00;;;;;;;0.80;0.60;;;11.00;87.50;;;;;;5051051;28;20033;-58
2023/12/13 03:51:26;;;;;;;0.75;0.75;;;11.00;87.50;;;;;;5059005;28;20035;-68
2023/12/13 03:53:52;;;;;;;1.90;0.77;;;11.00;87.60;;;;;;5063715;28;20031;-58
2023/12/13 03:56:18;;;;;;;0.88;0.80;;;10.90;87.80;;;;;;5051680;28;20392;-58
2023/12/13 03:58:43;;;;;;;0.70;0.60;;;10.90;87.80;;;;;;5057549;28;20527;-58
2023/12/13 04:01:09;;;;;;;0.65;0.57;;;10.90;87.80;;;;;;5054114;28;20043;-58
2023/12/13 04:03:35;;;;;;;1.88;0.65;;;10.90;87.90;;;;;;5053886;28;20029;-67
2023/12/13 04:06:01;;;;;;;0.90;0.63;;;10.90;87.90;;;;;;5054478;28;20043;-67
2023/12/13 04:08:27;;;;;;;3.47;1.23;;;11.00;87.90;;;;;;5047787;28;20069;-68
2023/12/13 04:10:53;;;;;;;0.90;0.77;;;11.00;87.80;;;;;;5049502;28;20021;-67
2023/12/13 04:13:18;;;;;;;2.05;1.33;;;11.00;87.70;;;;;;5045342;28;20060;-68
2023/12/13 04:15:44;;;;;;;1.95;1.00;;;11.10;87.70;;;;;;5048964;28;20029;-67
2023/12/13 04:18:11;;;;;;;0.98;0.88;;;11.00;87.60;;;;;;5053620;28;20040;-67
2023/12/13 04:20:36;;;;;;;3.08;1.15;;;11.00;87.70;;;;;;5050859;28;20036;-68
2023/12/13 04:23:03;;;;;;;1.15;1.05;;;11.10;87.70;;;;;;5048539;28;20036;-68
2023/12/13 04:25:29;;;;;;;2.60;0.82;;;11.10;87.70;;;;;;5053768;28;20037;-67
2023/12/13 04:27:54;;;;;;;0.95;0.77;;;11.10;87.60;;;;;;5048273;28;20487;-68
2023/12/13 04:30:20;;;;;;;1.33;0.90;;;11.10;87.60;;;;;;5052172;28;20033;-68
2023/12/13 04:32:46;;;;;;;1.10;1.00;;;11.10;87.60;;;;;;5056675;28;20126;-67
2023/12/13 04:35:12;;;;;;;2.25;1.00;;;11.10;87.50;;;;;;5052092;28;20051;-68
2023/12/13 04:37:38;;;;;;;2.72;1.77;;;11.10;87.60;;;;;;5059536;28;20488;-67
2023/12/13 04:40:06;;;;;;;2.25;0.90;;;11.10;87.60;;;;;;5054023;28;20029;-67
2023/12/13 04:42:32;;;;;;;0.63;0.63;;;11.10;87.60;;;;;;5052980;28;20075;-67
2023/12/13 04:44:57;;;;;;;3.60;1.52;;;11.10;87.70;;;;;;5059778;28;20476;-68
2023/12/13 04:47:24;;;;;;;3.42;0.90;;;11.10;87.70;;;;;;5049498;28;20048;-58
2023/12/13 04:49:50;;;;;;;0.90;0.60;;;11.10;87.70;;;;;;5049838;28;20124;-58
2023/12/13 04:52:15;;;;;;;3.30;1.27;;;11.20;87.70;;;;;;5052871;28;20029;-58
2023/12/13 04:54:41;;;;;;;3.67;1.35;;;11.10;87.60;;;;;;5049434;28;20025;-58
2023/12/13 04:57:08;;;;;;;2.10;1.55;;;11.10;87.70;;;;;;5059169;28;20021;-58
2023/12/13 04:59:33;;;;;;;3.20;0.93;;;11.10;87.80;;;;;;5053933;28;20495;-58
2023/12/13 05:01:59;;;;;;;2.20;1.40;;;11.10;87.90;;;;;;5051035;28;20032;-58
2023/12/13 05:04:25;;;;;;;3.65;1.55;;;11.10;87.90;;;;;;5055234;28;20029;-59
2023/12/13 05:06:50;;;;;;;3.35;1.83;;;11.10;87.90;;;;;;5039112;28;20045;-67
2023/12/13 05:09:16;;;;;;;4.20;1.20;;;11.10;87.90;;;;;;5051063;28;20077;-67
2023/12/13 05:11:42;;;;;;;1.92;1.55;;;11.10;87.90;;;;;;5051853;28;20025;-67
2023/12/13 05:14:08;;;;;;;3.03;1.20;;;11.10;87.90;;;;;;5054710;28;20025;-67
2023/12/13 05:16:34;;;;;;;1.63;1.45;;;11.10;87.90;;;;;;5060100;28;20025;-68
2023/12/13 05:19:00;;;;;;;3.80;1.77;;;11.10;88.00;;;;;;5049906;28;20032;-67
2023/12/13 05:21:26;;;;;;;1.95;1.48;;;11.20;88.00;;;;;;5047712;28;20036;-67
2023/12/13 05:23:51;;;;;;;5.43;1.85;;;11.20;87.90;;;;;;5045498;28;20021;-58
2023/12/13 05:26:17;;;;;;;3.45;1.40;;;11.20;87.90;;;;;;5043972;28;20469;-58
2023/12/13 05:28:43;;;;;;;2.88;1.25;;;11.20;87.80;;;;;;5054440;28;20037;-58
2023/12/13 05:31:19;;;;;;;1.45;1.10;;;11.20;87.80;;;;;;5049612;28;20029;-58
2023/12/13 05:33:46;;;;;;;1.25;1.10;;;11.20;87.70;;;;;;5050033;28;20020;-58
2023/12/13 05:36:11;;;;;;;4.95;2.17;;;11.20;87.80;;;;;;5054425;28;20031;-58
2023/12/13 05:38:37;;;;;;;2.25;1.50;;;11.20;87.90;;;;;;5047635;28;20037;-57
2023/12/13 05:41:03;;;;;;;3.20;1.27;;;11.20;87.90;;;;;;5045040;28;20101;-58
2023/12/13 05:43:29;;;;;;;6.22;2.33;;;11.20;87.90;;;;;;5050039;28;20039;-58
2023/12/13 05:45:54;;;;;;;4.60;2.25;;;11.20;87.90;;;;;;5054359;28;20035;-58
2023/12/13 05:48:20;;;;;;;1.88;1.40;;;11.20;88.00;;;;;;5058661;28;20123;-68
2023/12/13 05:50:46;;;;;;;1.17;1.08;;;11.20;87.90;;;;;;5056005;28;20029;-67
2023/12/13 05:53:11;;;;;;;1.65;1.33;;;11.20;87.90;;;;;;5055651;28;20104;-68
2023/12/13 05:55:37;;;;;;;4.97;1.95;;;11.20;87.90;;;;;;5051324;28;20029;-68
2023/12/13 05:58:03;;;;;;;1.23;1.00;;;11.20;87.90;;;;;;5050487;28;20063;-67
2023/12/13 06:00:31;;;;;;;5.72;1.63;;;11.30;87.90;;;;;;5052647;28;20107;-68
2023/12/13 06:02:58;;;;;;;1.38;1.10;;;11.30;87.90;;;;;;5052090;28;20040;-68
2023/12/13 06:05:24;;;;;;;3.33;1.75;;;11.20;87.90;;;;;;5054438;28;20090;-67
2023/12/13 06:07:50;;;;;;;2.55;1.67;;;11.30;87.90;;;;;;5055510;28;20111;-58
2023/12/13 06:10:15;;;;;;;3.42;1.27;;;11.20;87.90;;;;;;5067734;28;20024;-58
2023/12/13 06:12:41;;;;;;;3.03;1.70;;;11.20;88.00;;;;;;5048256;28;20036;-58
2023/12/13 06:15:07;;;;;;;5.05;1.23;;;11.20;88.10;;;;;;5057911;28;20045;-59
2023/12/13 06:17:33;;;;;;;1.27;1.05;;;11.20;88.10;;;;;;5054430;28;20064;-59
2023/12/13 06:20:00;;;;;;;3.55;1.98;;;11.20;88.10;;;;;;5060321;28;20072;-59
2023/12/13 06:22:26;;;;;;;5.10;2.30;;;11.20;88.10;;;;;;5061887;28;20044;-59
2023/12/13 06:24:52;;;;;;;3.30;2.13;;;11.20;88.10;;;;;;5060652;28;20051;-58
2023/12/13 06:27:17;;;;;;;1.92;1.52;;;11.10;88.10;;;;;;5060650;28;20075;-68
2023/12/13 06:29:43;;;;;;;3.92;1.60;;;11.10;88.20;;;;;;5059048;28;20682;-67
2023/12/13 06:32:09;;;;;;;3.15;1.38;;;11.10;88.20;;;;;;5051579;28;20125;-68
2023/12/13 06:34:35;;;;;;;11.27;2.55;;;11.10;88.20;;;;;;5060653;28;20404;-68
2023/12/13 06:37:01;;;;;;;2.35;1.50;;;11.20;88.30;;;;;;5057331;28;20029;-68
2023/12/13 06:39:26;;;;;;;11.98;2.17;;;11.20;88.20;;;;;;5053522;28;20033;-68
2023/12/13 06:41:52;;;;;;;3.67;1.50;;;11.20;88.20;;;;;;5057706;28;20389;-68
2023/12/13 06:44:17;;;;;;;1.83;1.52;;;11.20;88.20;;;;;;5060255;28;20025;-68
2023/12/13 06:46:43;;;;;;;2.47;1.95;;;11.20;88.20;;;;;;5051694;28;20109;-68
2023/12/13 06:49:09;;;;;;;3.15;1.85;;;11.20;88.30;;;;;;5051985;28;20033;-67
2023/12/13 06:51:36;;;;;;;1.90;1.50;;;11.20;88.30;;;;;;5051594;28;20033;-68
2023/12/13 06:54:01;;;;;;;4.38;1.73;;;11.20;88.30;;;;;;5055145;28;20133;-68
2023/12/13 06:56:28;;;;;;;2.45;1.50;;;11.20;88.30;;;;;;5052264;28;20032;-68
2023/12/13 06:58:53;;;;;;;4.53;1.40;;;11.20;88.20;;;;;;5053641;28;20064;-68
2023/12/13 07:01:20;;;;;;;4.60;1.58;;;11.20;88.20;;;;;;5053700;28;20100;-68
2023/12/13 07:03:46;;;;;;;2.90;1.58;;;11.20;88.20;;;;;;5050783;28;20424;-68
2023/12/13 07:06:16;;;;;;;3.63;1.50;;;11.20;88.20;;;;;;5051738;28;20071;-67
2023/12/13 07:08:42;;;;;;;2.65;1.40;;;11.20;88.20;;;;;;5047460;28;20136;-68
2023/12/13 07:11:07;;;;;;;2.58;1.85;;;11.20;88.20;;;;;;5050491;28;20021;-68
2023/12/13 07:13:33;;;;;;;1.25;1.10;;;11.20;88.20;;;;;;5035915;28;20055;-68
2023/12/13 07:15:58;;;;;;;2.45;1.55;;;11.20;88.20;;;;;;5051665;28;20029;-68
2023/12/13 07:18:25;;;;;;;4.40;1.83;;;11.30;88.20;;;;;;5048731;28;20033;-68
2023/12/13 07:20:52;;;;;;;5.10;1.70;;;11.30;88.20;;;;;;5048617;28;20043;-67
2023/12/13 07:23:17;;;;;;;2.40;1.67;;;11.30;88.20;;;;;;5051083;28;20436;-68
2023/12/13 07:25:43;;;;;;;2.78;1.60;;;11.30;88.10;;;;;;5048482;28;20041;-68
2023/12/13 07:28:10;;;;;;;11.05;1.73;;;11.30;88.10;;;;;;5049180;28;20029;-68
2023/12/13 07:30:36;;;;;;;3.65;1.63;;;11.30;88.10;;;;;;5050399;28;20056;-68
2023/12/13 07:33:03;;;;;;;2.15;1.25;;;11.30;88.00;;;;;;5053855;28;20130;-68
2023/12/13 07:35:29;;;;;;;3.08;1.63;;;11.30;88.00;;;;;;5054152;28;20120;-68
2023/12/13 07:37:55;;;;;;;2.50;1.52;;;11.30;88.00;;;;;;5055594;28;20111;-68
2023/12/13 07:40:20;;;;;;;2.42;2.22;;;11.30;88.00;;;;;;5049012;28;20040;-68
2023/12/13 07:42:47;;;;;;;5.28;1.70;;;11.30;88.20;;;;;;5052219;28;20418;-68
2023/12/13 07:45:13;;;;;;;3.13;1.80;;;11.30;88.20;;;;;;5051768;28;20392;-68
2023/12/13 07:47:39;;;;;;;1.67;1.48;;;11.30;88.20;;;;;;5055336;28;20040;-68
2023/12/13 07:50:08;;;;;;;2.92;1.77;;;11.20;88.30;;;;;;5046003;28;20025;-68
2023/12/13 07:52:34;;;;;;;3.20;1.45;;;11.30;88.30;;;;;;5050729;28;20028;-69
2023/12/13 07:55:00;;;;;;;4.53;1.25;;;11.30;88.30;;;;;;5048646;28;20590;-68
2023/12/13 07:57:26;;;;;;;1.67;1.48;;;11.30;88.20;;;;;;5052319;28;20056;-68
2023/12/13 07:59:51;;;;;;;1.05;0.98;;;11.30;88.20;;;;;;5051661;28;20036;-67
2023/12/13 08:02:20;;;;;;;5.88;2.45;;;11.40;88.20;;;;;;5050483;28;20021;-68
2023/12/13 08:04:46;;;;;;;2.25;1.60;;;11.40;88.10;;;;;;5055906;28;20036;-68
2023/12/13 08:07:12;;;;;;;3.05;1.30;;;11.40;88.20;;;;;;5056083;28;20384;-67
2023/12/13 08:09:37;;;;;;;4.68;1.95;;;11.40;88.10;;;;;;5047620;28;20047;-68
2023/12/13 08:12:03;;;;;;;2.13;1.63;;;11.40;88.10;;;;;;5044041;28;20033;-67
2023/12/13 08:14:30;;;;;;;2.03;1.83;;;11.40;88.10;;;;;;5047364;28;20049;-67
2023/12/13 08:16:57;;;;;;;1.75;1.65;;;11.40;88.20;;;;;;5051399;28;20040;-68
2023/12/13 08:19:22;;;;;;;2.10;1.38;;;11.40;88.10;;;;;;5054921;28;20156;-67
2023/12/13 08:21:48;;;;;;;3.28;2.10;;;11.40;88.70;;;;;;5047769;28;20120;-68
2023/12/13 08:24:14;;;;;;;2.70;1.70;;;11.40;88.10;;;;;;5052145;28;20025;-68
2023/12/13 08:26:40;;;;;;;1.98;1.38;;;11.40;88.10;;;;;;5051451;28;20123;-68
2023/12/13 08:29:05;;;;;;;4.63;2.00;;;11.40;88.10;;;;;;5056596;28;20419;-58
2023/12/13 08:31:31;;;;;;;1.95;1.25;;;11.40;88.10;;;;;;5051250;28;20025;-57
2023/12/13 08:33:57;;;;;;;3.28;1.55;;;11.40;88.10;;;;;;5049852;28;20418;-58
2023/12/13 08:36:23;;;;;;;4.07;2.10;;;11.40;88.20;;;;;;5051201;28;20032;-58
2023/12/13 08:38:49;;;;;;;1.98;1.65;;;11.40;88.20;;;;;;5055592;28;20027;-57
2023/12/13 08:41:15;;;;;;;3.40;1.75;;;11.40;88.20;;;;;;5049160;28;20033;-58
2023/12/13 08:43:41;;;;;;;2.75;1.52;;;11.40;88.30;;;;;;5049462;28;20095;-57
2023/12/13 08:46:07;;;;;;;4.78;1.38;;;11.30;88.30;;;;;;5045071;28;20025;-57
2023/12/13 08:48:32;;;;;;;4.03;2.30;;;11.30;88.50;;;;;;5052245;28;20032;-58
2023/12/13 08:50:58;;;;;;;3.17;1.42;;;11.30;88.70;;;;;;5057522;28;20111;-58
2023/12/13 08:53:24;;;;;;;2.00;1.40;;;11.30;88.60;;;;;;5056168;28;20025;-58
2023/12/13 08:55:50;;;;;;;1.75;1.38;;;11.40;88.60;;;;;;5043979;28;20112;-57
2023/12/13 08:58:16;;;;;;;3.63;1.15;;;11.40;88.50;;;;;;5050820;28;20061;-57
2023/12/13 09:00:41;;;;;;;3.33;1.75;;;11.40;88.40;;;;;;5050140;28;20079;-58
2023/12/13 09:03:08;;;;;;;2.45;1.10;;;11.50;88.50;;;;;;5045498;28;20036;-58
2023/12/13 09:05:35;;;;;;;2.42;1.67;;;11.40;88.30;;;;;;5049053;28;20111;-57
2023/12/13 09:08:00;;;;;;;3.50;1.88;;;11.50;88.40;;;;;;5054883;28;20507;-58
2023/12/13 09:10:26;;;;;;;2.60;1.38;;;11.50;88.40;;;;;;5043193;28;20043;-58
2023/12/13 09:12:52;;;;;;;8.23;1.83;;;11.50;88.40;;;;;;5045214;28;20753;-58
2023/12/13 09:15:18;;;;;;;2.80;1.90;;;11.50;88.40;;;;;;5059815;28;20080;-58
2023/12/13 09:17:47;;;;;;;5.22;2.00;;;11.40;88.40;;;;;;5048966;28;20025;-58
2023/12/13 09:20:15;;;;;;;2.40;1.52;;;11.50;88.60;;;;;;5054202;28;20086;-58
2023/12/13 09:22:44;;;;;;;8.05;1.95;;;11.50;88.60;;;;;;5048304;28;20028;-68
2023/12/13 09:25:16;;;;;;;3.88;1.83;;;11.40;88.60;;;;;;5056221;28;20021;-68
2023/12/13 09:27:42;;;;;;;4.18;2.05;;;11.40;88.60;;;;;;5061457;28;20068;-69
2023/12/13 09:30:13;;;;;;;5.00;1.60;;;11.50;88.70;;;;;;5054221;28;20484;-69
2023/12/13 09:32:39;;;;;;;7.50;2.10;;;11.50;88.70;;;;;;5062255;28;20039;-69
2023/12/13 09:35:05;;;;;;;2.97;1.65;;;11.50;88.70;;;;;;5059498;28;20020;-70
2023/12/13 09:37:32;;;;;;;5.13;2.08;;;11.60;88.60;;;;;;5050326;28;20116;-69
2023/12/13 09:39:59;;;;;;;2.17;1.73;;;11.60;88.50;;;;;;5047530;28;20472;-68
2023/12/13 09:42:25;;;;;;;1.90;1.20;;;11.60;88.60;;;;;;5045000;28;20025;-68
2023/12/13 09:44:52;;;;;;;3.75;1.73;;;11.60;88.60;;;;;;5039842;28;20391;-68
2023/12/13 09:47:22;;;;;;;2.70;1.92;;;11.60;88.80;;;;;;5040688;28;20033;-69
2023/12/13 09:49:52;;;;;;;2.78;1.30;;;11.60;88.60;;;;;;5049279;28;20112;-69
2023/12/13 09:52:20;;;;;;;2.30;1.42;;;11.60;88.50;;;;;;5047762;28;20113;-58
2023/12/13 09:54:47;;;;;;;5.25;1.88;;;11.60;88.50;;;;;;5057113;28;20033;-59
2023/12/13 09:57:13;;;;;;;5.68;2.15;;;11.60;88.60;;;;;;5046245;28;20024;-59
2023/12/13 09:59:40;;;;;;;4.82;1.58;;;11.60;88.70;;;;;;5050103;28;20119;-59
2023/12/13 10:02:12;;;;;;;3.22;2.00;;;11.60;88.70;;;;;;5051316;28;20079;-58
2023/12/13 10:04:38;;;;;;;1.13;0.88;;;11.60;88.60;;;;;;5048262;28;20150;-59
2023/12/13 10:07:06;;;;;;;5.38;2.13;;;11.60;88.60;;;;;;5051743;28;20045;-58
2023/12/13 10:09:32;;;;;;;3.38;1.20;;;11.70;88.60;;;;;;5046963;28;20045;-58
2023/12/13 10:12:01;;;;;;;3.90;1.05;;;11.70;88.50;;;;;;5045066;28;20112;-58
2023/12/13 10:14:27;;;;;;;2.10;1.27;;;11.80;88.50;;;;;;5054729;28;20057;-58
2023/12/13 10:16:53;;;;;;;3.08;1.38;;;11.70;88.40;;;;;;5043047;28;20036;-58
2023/12/13 10:19:19;;;;;;;2.80;1.77;;;11.80;88.30;;;;;;5044512;28;20086;-58
2023/12/13 10:21:50;;;;;;;4.15;1.50;;;11.80;88.40;;;;;;5048052;28;20063;-58
2023/12/13 10:24:16;;;;;;;2.55;1.77;;;11.70;88.30;;;;;;5046180;28;20027;-58
2023/12/13 10:26:42;;;;;;;3.72;1.50;;;11.70;88.40;;;;;;5048008;28;20451;-60
2023/12/13 10:29:07;;;;;;;1.52;1.35;;;11.80;88.40;;;;;;5042188;28;20031;-59
2023/12/13 10:31:35;;;;;;;6.45;1.90;;;11.80;88.30;;;;;;5014248;28;20021;-59
2023/12/13 10:34:01;;;;;;;3.20;1.67;;;11.80;88.30;;;;;;5052004;28;20037;-60
2023/12/13 10:36:27;;;;;;;2.50;1.60;;;11.80;88.30;;;;;;5041593;28;20420;-59
2023/12/13 10:38:54;;;;;;;2.85;1.70;;;11.80;88.30;;;;;;5047319;28;20480;-70
2023/12/13 10:41:27;;;;;;;1.55;1.05;;;11.80;88.30;;;;;;5053473;28;20021;-69
2023/12/13 10:43:57;;;;;;;2.45;1.63;;;11.90;88.30;;;;;;5030641;28;20033;-59
2023/12/13 10:46:26;;;;;;;4.47;2.13;;;11.80;88.20;;;;;;5032856;28;20029;-58
2023/12/13 10:48:52;;;;;;;5.88;1.90;;;11.80;88.30;;;;;;5046948;28;20987;-59
2023/12/13 10:51:21;;;;;;;2.60;1.63;;;11.80;88.20;;;;;;5043577;28;20576;-59
2023/12/13 10:53:48;;;;;;;1.08;0.95;;;11.70;88.30;;;;;;5042813;28;20035;-59
2023/12/13 10:56:17;;;;;;;1.25;1.08;;;11.70;88.40;;;;;;5027948;28;20104;-59
2023/12/13 10:58:46;;;;;;;3.92;1.98;;;11.70;88.40;;;;;;5028535;28;20468;-68
2023/12/13 11:01:14;;;;;;;2.78;1.70;;;11.80;88.30;;;;;;5047589;28;20182;-58
2023/12/13 11:03:51;;;;;;;3.05;1.27;;;11.70;88.30;;;;;;5053245;28;20028;-69
2023/12/13 11:06:17;;;;;;;2.55;1.38;;;11.70;88.30;;;;;;5050854;28;20051;-59
2023/12/13 11:08:44;;;;;;;4.97;1.83;;;11.70;88.20;;;;;;5060883;28;20053;-69
2023/12/13 11:11:13;;;;;;;1.73;1.30;;;11.70;88.20;;;;;;5057602;28;20029;-58
2023/12/13 11:13:48;;;;;;;3.97;2.03;;;11.70;88.20;;;;;;5054522;28;20017;-58
2023/12/13 11:16:15;;;;;;;1.98;1.30;;;11.70;88.10;;;;;;5053593;28;20033;-69
2023/12/13 11:18:41;;;;;;;2.72;1.73;;;11.70;88.10;;;;;;5039451;28;20908;-69
2023/12/13 11:21:06;;;;;;;1.23;1.13;;;11.80;88.20;;;;;;5045370;28;20096;-58
2023/12/13 11:23:32;;;;;;;2.70;1.55;;;11.80;88.10;;;;;;5042375;28;20051;-59
2023/12/13 11:25:58;;;;;;;1.45;1.35;;;11.80;88.00;;;;;;5033011;28;20111;-58
2023/12/13 11:28:25;;;;;;;3.10;1.75;;;11.80;88.00;;;;;;5038813;28;20049;-58
2023/12/13 11:30:54;;;;;;;2.03;1.00;;;11.80;87.80;;;;;;5040880;28;20095;-69
2023/12/13 11:33:22;;;;;;;2.08;1.13;;;11.80;87.80;;;;;;5048318;28;20047;-69
2023/12/13 11:35:50;;;;;;;1.90;0.98;;;11.70;87.80;;;;;;5053034;28;20025;-59
2023/12/13 11:38:17;;;;;;;1.00;0.80;;;11.70;87.80;;;;;;5053568;28;20025;-59
2023/12/13 11:40:43;;;;;;;0.82;0.68;;;11.70;87.80;;;;;;5054840;28;20037;-58
2023/12/13 11:43:08;;;;;;;1.25;0.80;;;11.70;87.90;;;;;;5050519;28;20496;-58
2023/12/13 11:45:34;;;;;;;1.08;0.80;;;11.70;88.50;;;;;;5028756;28;20044;-59
2023/12/13 11:48:03;;;;;;;0.63;0.55;;;11.70;87.80;;;;;;5034104;28;20503;-59
2023/12/13 11:50:28;;;;;;;0.82;0.60;;;11.70;87.80;;;;;;5045685;28;20024;-58
2023/12/13 11:52:54;;;;;;;1.30;0.85;;;11.70;87.80;;;;;;5044098;28;20107;-59
2023/12/13 11:55:20;;;;;;;2.75;0.85;;;11.70;87.70;;;;;;5042756;28;20056;-59
2023/12/13 11:57:53;;;;;;;2.83;1.08;;;11.70;87.60;;;;;;5034585;28;20107;-59
2023/12/13 12:00:19;;;;;;;0.63;0.52;;;11.70;87.60;;;;;;5043665;28;20055;-59
2023/12/13 12:02:46;;;;;;;0.90;0.70;;;11.70;87.60;;;;;;5039577;28;20484;-69
2023/12/13 12:05:14;;;;;;;1.10;0.60;;;11.60;87.50;;;;;;5043454;28;20036;-59
2023/12/13 12:07:40;;;;;;;0.55;0.52;;;11.70;87.60;;;;;;5043336;28;20469;-59
2023/12/13 12:10:07;;;;;;;0.80;0.47;;;11.70;87.50;;;;;;5044690;28;20041;-59
2023/12/13 12:12:35;;;;;;;0.73;0.65;;;11.70;87.50;;;;;;5047074;28;20028;-58
2023/12/13 12:15:06;;;;;;;0.57;0.50;;;11.60;87.40;;;;;;5046782;28;20036;-59
2023/12/13 12:17:32;;;;;;;0.35;0.35;;;11.70;87.50;;;;;;5035817;28;20036;-68
2023/12/13 12:19:59;;;;;;;2.25;0.60;;;11.60;87.50;;;;;;5038543;28;20033;-69
2023/12/13 12:22:25;;;;;;;3.08;0.70;;;11.60;87.40;;;;;;5042056;28;20099;-68
2023/12/13 12:24:51;;;;;;;0.60;0.60;;;11.60;87.40;;;;;;5048204;28;20033;-68
2023/12/13 12:27:23;;;;;;;0.73;0.45;;;11.60;87.40;;;;;;5042268;28;20125;-69
2023/12/13 12:29:50;;;;;;;;;;;11.60;87.40;;;;;;5038110;28;20107;-68
2023/12/13 12:32:16;;;;;;;0.60;0.60;;;11.60;87.40;;;;;;5039769;28;20515;-58
2023/12/13 12:34:47;;;;;;;0.65;0.57;;;11.50;87.50;;;;;;5038708;28;20052;-59
2023/12/13 12:37:14;;;;;;;0.80;0.50;;;11.50;87.50;;;;;;5065703;28;20112;-58
2023/12/13 12:39:40;;;;;;;2.03;0.75;;;11.60;87.50;;;;;;5050222;28;20032;-59
2023/12/13 12:42:06;;;;;;;0.47;0.40;;;11.60;87.40;;;;;;5045658;28;20496;-58
2023/12/13 12:44:32;;;;;;;1.23;0.90;;;11.60;87.30;;;;;;5044520;28;20044;-60